Time;durP1;ratioP1;P1;durP2;ratioP2;P2;SDS_P1;SDS_P2;PMS_P1;PMS_P2;Temp;Humidity;BMP_temperature;BMP_pressure;BME280_temperature;BME280_humidity;BME280_pressure;Samples;Min_cycle;Max_cycle;Signal;HPM_P1;HPM_P2
2022/07/23 00:00:19;;;;;;;5.10;4.65;;;;;;;19.16;54.20;100961.19;5095987;28;20028;-31
2022/07/23 00:02:44;;;;;;;4.82;4.28;;;;;;;19.14;54.19;100953.25;5083966;28;20367;-32
2022/07/23 00:05:10;;;;;;;5.40;4.90;;;;;;;19.10;54.23;100957.84;5095211;28;20020;-32
2022/07/23 00:07:36;;;;;;;5.75;5.28;;;;;;;19.08;54.66;100943.66;5077703;28;20032;-32
2022/07/23 00:10:03;;;;;;;5.75;4.85;;;;;;;19.10;54.66;100949.84;5075795;28;20036;-31
2022/07/23 00:12:28;;;;;;;5.20;4.80;;;;;;;19.13;54.64;100961.31;5095179;28;20024;-32
2022/07/23 00:14:53;;;;;;;4.60;4.28;;;;;;;19.01;54.30;100960.88;5094492;28;20031;-32
2022/07/23 00:17:19;;;;;;;5.18;4.68;;;;;;;19.00;54.87;100961.78;5092249;28;20471;-32
2022/07/23 00:19:44;;;;;;;5.13;4.63;;;;;;;18.94;54.73;100964.72;5085096;28;20024;-32
2022/07/23 00:22:09;;;;;;;5.45;4.97;;;;;;;18.96;54.75;100949.50;5055813;28;20021;-31
2022/07/23 00:24:35;;;;;;;5.30;4.88;;;;;;;18.88;54.80;100957.81;5073761;28;20024;-31
2022/07/23 00:27:00;;;;;;;5.55;5.05;;;;;;;18.87;55.29;100955.22;5074777;28;20024;-32
2022/07/23 00:29:26;;;;;;;5.95;5.45;;;;;;;18.81;55.13;100953.66;5040131;28;20052;-30
2022/07/23 00:31:52;;;;;;;5.50;4.60;;;;;;;18.79;55.29;100948.38;5056416;28;20503;-31
2022/07/23 00:34:17;;;;;;;5.75;5.20;;;;;;;18.77;55.26;100934.19;5074345;28;20054;-31
2022/07/23 00:36:42;;;;;;;6.28;5.07;;;;;;;18.77;55.53;100939.53;5074355;28;20428;-29
2022/07/23 00:39:08;;;;;;;7.28;5.88;;;;;;;18.75;55.30;100941.41;5074754;28;20020;-29
2022/07/23 00:41:33;;;;;;;5.45;5.05;;;;;;;18.75;55.37;100936.06;5056179;28;20063;-29
2022/07/23 00:44:34;;;;;;;5.53;4.78;;;;;;;18.71;55.25;100929.94;5074216;28;20032;-30
2022/07/23 00:46:59;;;;;;;;;;;;;;;18.71;55.41;100945.13;4973098;28;20486;-29
2022/07/23 00:49:28;;;;;;;6.18;5.57;;;;;;;18.70;55.43;100930.00;5044633;28;19923;-29
2022/07/23 00:51:54;;;;;;;4.88;4.47;;;;;;;18.68;55.52;100931.88;5059237;28;20119;-29
2022/07/23 00:54:21;;;;;;;5.45;4.95;;;;;;;18.65;55.64;100922.19;5075724;28;20472;-29
2022/07/23 00:56:47;;;;;;;5.72;5.22;;;;;;;18.63;55.82;100915.16;5093800;28;20467;-29
2022/07/23 00:59:13;;;;;;;5.85;5.32;;;;;;;18.67;56.14;100917.66;5075569;28;20107;-29
2022/07/23 01:01:39;;;;;;;6.97;5.60;;;;;;;18.68;55.83;100926.53;5093270;28;20112;-29
2022/07/23 01:04:04;;;;;;;6.18;5.50;;;;;;;18.63;55.99;100923.16;5075597;28;20059;-29
2022/07/23 01:06:36;;;;;;;6.15;5.57;;;;;;;18.61;55.91;100928.59;5092070;28;20024;-29
2022/07/23 01:09:02;;;;;;;5.72;5.22;;;;;;;18.59;55.73;100920.63;5093643;28;20024;-29
2022/07/23 01:11:28;;;;;;;6.20;5.60;;;;;;;18.61;55.94;100917.03;5058898;28;20044;-29
2022/07/23 01:13:53;;;;;;;5.80;5.30;;;;;;;18.58;55.82;100926.03;5075302;28;20058;-29
2022/07/23 01:16:19;;;;;;;6.50;5.15;;;;;;;18.58;55.87;100923.38;5093837;28;20440;-29
2022/07/23 01:18:44;;;;;;;5.97;5.35;;;;;;;18.55;55.67;100926.16;5042387;28;20055;-29
2022/07/23 01:21:12;;;;;;;6.28;5.63;;;;;;;18.55;56.09;100921.69;5058343;28;20020;-29
2022/07/23 01:23:38;;;;;;;7.70;5.45;;;;;;;18.54;55.96;100933.28;5074845;28;20150;-29
2022/07/23 01:26:04;;;;;;;6.43;5.40;;;;;;;18.53;56.02;100926.22;5073131;28;20084;-29
2022/07/23 01:28:29;;;;;;;6.35;5.75;;;;;;;18.51;56.18;100916.50;5073630;28;20028;-29
2022/07/23 01:30:54;;;;;;;6.05;5.45;;;;;;;18.49;56.25;100916.56;5071746;28;20035;-29
2022/07/23 01:33:20;;;;;;;5.90;5.40;;;;;;;18.53;56.61;100925.31;5072825;28;20028;-29
2022/07/23 01:35:45;;;;;;;6.18;5.60;;;;;;;18.48;56.19;100928.19;5072953;28;20092;-29
2022/07/23 01:38:10;;;;;;;6.82;5.22;;;;;;;18.44;56.41;100927.41;5072683;28;20112;-29
2022/07/23 01:40:36;;;;;;;6.63;6.03;;;;;;;18.47;56.38;100929.09;5055327;28;20020;-29
2022/07/23 01:43:01;;;;;;;6.75;6.07;;;;;;;18.43;56.35;100931.03;5073429;28;20028;-29
2022/07/23 01:45:27;;;;;;;6.38;5.55;;;;;;;18.40;56.45;100931.16;5045780;28;20025;-29
2022/07/23 01:47:52;;;;;;;5.97;5.40;;;;;;;18.41;56.48;100937.38;5071806;28;20055;-29
2022/07/23 01:50:18;;;;;;;6.93;6.32;;;;;;;18.41;56.36;100948.03;5075795;28;20156;-29
2022/07/23 01:52:43;;;;;;;7.57;5.82;;;;;;;18.38;56.60;100943.69;5092617;28;20217;-29
2022/07/23 01:55:08;;;;;;;6.65;6.05;;;;;;;18.40;57.17;100940.94;5092938;28;20028;-29
2022/07/23 01:57:34;;;;;;;7.07;6.40;;;;;;;18.45;57.23;100933.66;5093614;28;20028;-29
2022/07/23 01:59:59;;;;;;;6.88;6.18;;;;;;;18.43;57.43;100938.16;5093259;28;20302;-29
2022/07/23 02:02:24;;;;;;;7.20;6.60;;;;;;;18.43;57.63;100936.38;5093257;28;20032;-30
2022/07/23 02:04:50;;;;;;;7.95;7.05;;;;;;;18.43;57.07;100930.16;5091564;28;20106;-29
2022/07/23 02:07:15;;;;;;;7.68;6.93;;;;;;;18.38;57.17;100933.03;5091708;28;20036;-29
2022/07/23 02:09:41;;;;;;;7.70;6.90;;;;;;;18.38;57.36;100921.47;5094156;28;20024;-29
2022/07/23 02:12:07;;;;;;;6.80;6.10;;;;;;;18.40;57.63;100898.22;5094014;28;20463;-29
2022/07/23 02:14:32;;;;;;;7.05;6.05;;;;;;;18.38;57.38;100908.09;5092218;28;20562;-29
2022/07/23 02:16:57;;;;;;;7.55;6.85;;;;;;;18.40;57.64;100903.56;5088897;28;20487;-29
2022/07/23 02:19:23;;;;;;;7.43;6.72;;;;;;;18.37;57.37;100898.38;5092870;28;20028;-29
2022/07/23 02:21:48;;;;;;;10.07;6.47;;;;;;;18.37;57.08;100907.22;5092475;28;20028;-29
2022/07/23 02:24:14;;;;;;;6.90;6.30;;;;;;;18.36;57.25;100888.59;5090389;28;20383;-29
2022/07/23 02:26:40;;;;;;;7.97;7.18;;;;;;;18.37;57.25;100885.00;5072011;28;20040;-29
2022/07/23 02:29:05;;;;;;;7.57;6.45;;;;;;;18.39;57.35;100891.16;5073236;28;20024;-29
2022/07/23 02:31:31;;;;;;;9.95;6.85;;;;;;;18.40;57.56;100892.88;5038266;28;20052;-29
2022/07/23 02:33:57;;;;;;;7.10;6.40;;;;;;;18.39;57.40;100893.81;5072721;28;20510;-29
2022/07/23 02:36:22;;;;;;;7.50;6.75;;;;;;;18.40;57.64;100887.53;5072188;28;20036;-29
2022/07/23 02:38:48;;;;;;;10.82;6.50;;;;;;;18.41;57.55;100894.63;5072088;28;20021;-29
2022/07/23 02:41:13;;;;;;;7.47;6.75;;;;;;;18.44;58.38;100879.34;5072256;28;20376;-29
2022/07/23 02:43:38;;;;;;;10.02;7.47;;;;;;;18.45;58.79;100864.22;5058997;28;20016;-29
2022/07/23 02:46:04;;;;;;;7.10;6.50;;;;;;;18.43;57.96;100861.59;5076509;28;20036;-29
2022/07/23 02:48:29;;;;;;;8.07;6.82;;;;;;;18.46;58.60;100852.59;5071964;28;20099;-29
2022/07/23 02:50:56;;;;;;;8.57;6.95;;;;;;;18.46;58.74;100853.47;5072551;28;20035;-29
2022/07/23 02:53:22;;;;;;;7.38;6.78;;;;;;;18.44;58.67;100863.34;5054474;28;20028;-29
2022/07/23 02:55:47;;;;;;;9.00;7.63;;;;;;;18.48;58.50;100873.91;5053831;28;20055;-29
2022/07/23 02:58:13;;;;;;;8.18;7.35;;;;;;;18.47;58.39;100857.00;5081514;28;20051;-29
2022/07/23 03:00:38;;;;;;;9.75;6.80;;;;;;;18.44;58.51;100859.81;5092518;28;20134;-29
2022/07/23 03:03:04;;;;;;;6.85;6.15;;;;;;;18.44;58.51;100862.50;5074057;28;20093;-29
2022/07/23 03:05:29;;;;;;;7.32;6.63;;;;;;;18.44;58.91;100867.81;5057334;28;20073;-29
2022/07/23 03:07:55;;;;;;;7.70;6.93;;;;;;;18.44;58.56;100857.16;5092932;28;20032;-29
2022/07/23 03:10:20;;;;;;;7.72;7.00;;;;;;;18.42;58.46;100848.31;5091039;28;20043;-29
2022/07/23 03:12:45;;;;;;;7.28;6.45;;;;;;;18.40;58.39;100855.50;5073864;28;20035;-29
2022/07/23 03:15:10;;;;;;;8.27;7.28;;;;;;;18.42;59.06;100869.66;5064257;28;20051;-29
2022/07/23 03:17:36;;;;;;;7.25;6.57;;;;;;;18.40;58.58;100876.84;5053854;28;20476;-29
2022/07/23 03:20:02;;;;;;;9.05;7.30;;;;;;;18.38;58.95;100887.63;5037316;28;20364;-29
2022/07/23 03:22:27;;;;;;;7.00;6.28;;;;;;;18.38;58.31;100903.66;5071958;28;20025;-29
2022/07/23 03:24:56;;;;;;;6.72;6.20;;;;;;;18.36;58.61;100900.16;5090881;28;20055;-29
2022/07/23 03:27:22;;;;;;;7.30;6.55;;;;;;;18.33;58.35;100892.25;5061810;28;20521;-29
2022/07/23 03:29:49;;;;;;;7.28;6.57;;;;;;;18.34;58.90;100896.66;5097224;28;20020;-29
2022/07/23 03:32:14;;;;;;;8.30;7.45;;;;;;;18.31;58.75;100892.31;5096860;28;20045;-29
2022/07/23 03:34:39;;;;;;;7.60;6.90;;;;;;;18.36;58.82;100909.94;5095102;28;20507;-29
2022/07/23 03:37:05;;;;;;;7.10;6.50;;;;;;;18.34;58.72;100900.22;5097194;28;20031;-29
2022/07/23 03:39:30;;;;;;;7.57;6.88;;;;;;;18.28;58.38;100900.44;5062727;28;20016;-29
2022/07/23 03:41:56;;;;;;;6.85;6.15;;;;;;;18.30;58.65;100893.25;5078656;28;20023;-32
2022/07/23 03:44:21;;;;;;;7.95;7.20;;;;;;;18.33;58.92;100906.47;5089292;28;20025;-32
2022/07/23 03:46:46;;;;;;;7.75;6.72;;;;;;;18.29;58.44;100918.22;5077419;28;20028;-31
2022/07/23 03:49:12;;;;;;;7.38;6.72;;;;;;;18.28;58.56;100924.47;5058433;28;20036;-32
2022/07/23 03:51:38;;;;;;;7.25;6.57;;;;;;;18.27;58.46;100943.22;5078133;28;20036;-31
2022/07/23 03:54:03;;;;;;;7.70;6.95;;;;;;;18.28;59.36;100959.16;5057611;28;20442;-31
2022/07/23 03:56:28;;;;;;;9.88;7.57;;;;;;;18.31;59.98;100980.41;5057244;28;20029;-29
2022/07/23 03:58:54;;;;;;;9.52;7.55;;;;;;;18.29;59.84;101006.31;5084842;28;20461;-31
2022/07/23 04:01:19;;;;;;;9.55;7.70;;;;;;;18.26;59.47;100992.19;5095484;28;20115;-31
2022/07/23 04:03:46;;;;;;;10.38;8.48;;;;;;;18.23;59.67;100985.16;5094225;28;20052;-31
2022/07/23 04:06:11;;;;;;;8.75;7.03;;;;;;;18.27;60.34;100929.88;5090688;28;20024;-31
2022/07/23 04:08:37;;;;;;;8.77;7.90;;;;;;;18.25;60.61;100878.34;5075209;28;20069;-31
2022/07/23 04:11:02;;;;;;;9.73;8.73;;;;;;;18.27;61.33;100892.50;5090506;28;20035;-31
2022/07/23 04:13:28;;;;;;;9.50;8.07;;;;;;;18.26;61.80;100954.81;5056463;28;20024;-31
2022/07/23 04:15:53;;;;;;;9.35;8.45;;;;;;;18.23;61.13;100974.50;5056675;28;20502;-31
2022/07/23 04:18:21;;;;;;;11.05;8.15;;;;;;;18.24;60.83;100946.00;5075100;28;20032;-31
2022/07/23 04:20:47;;;;;;;8.98;7.65;;;;;;;18.24;61.23;100946.84;5041102;28;20032;-32
2022/07/23 04:23:12;;;;;;;8.75;7.93;;;;;;;18.25;61.78;100942.41;5074250;28;20054;-32
2022/07/23 04:25:38;;;;;;;8.55;7.47;;;;;;;18.23;60.96;100934.44;5074764;28;20048;-31
2022/07/23 04:28:04;;;;;;;8.55;7.63;;;;;;;18.20;61.24;100929.22;5092486;28;20024;-31
2022/07/23 04:30:29;;;;;;;8.15;7.38;;;;;;;18.19;61.16;100920.34;5094684;28;20111;-31
2022/07/23 04:32:54;;;;;;;9.02;8.10;;;;;;;18.18;61.28;100894.56;5094106;28;20059;-31
2022/07/23 04:35:20;;;;;;;8.68;7.88;;;;;;;18.19;61.94;100887.44;5093697;28;20030;-32
2022/07/23 04:37:45;;;;;;;11.23;8.38;;;;;;;18.22;62.31;100892.66;5094307;28;20059;-31
2022/07/23 04:40:12;;;;;;;9.60;8.70;;;;;;;18.20;61.47;100900.72;5059753;28;20023;-32
2022/07/23 04:42:38;;;;;;;8.60;7.68;;;;;;;18.19;60.61;100906.13;5094037;28;20032;-32
2022/07/23 04:45:04;;;;;;;9.52;8.18;;;;;;;18.19;61.48;100928.38;5086989;28;20021;-31
2022/07/23 04:47:30;;;;;;;8.73;7.50;;;;;;;18.19;61.44;100923.03;5074277;28;20119;-31
2022/07/23 04:49:56;;;;;;;8.23;7.43;;;;;;;18.20;61.42;100931.88;5074107;28;20531;-31
2022/07/23 04:52:21;;;;;;;9.00;7.95;;;;;;;18.22;62.30;100938.06;5055852;28;20082;-31
2022/07/23 04:54:46;;;;;;;8.73;6.82;;;;;;;18.20;61.19;100942.56;5086093;28;20102;-32
2022/07/23 04:57:12;;;;;;;7.90;7.20;;;;;;;18.20;61.31;100930.09;5093599;28;20067;-32
2022/07/23 04:59:37;;;;;;;8.15;6.72;;;;;;;18.18;60.90;100941.75;5073741;28;20024;-31
2022/07/23 05:02:02;;;;;;;7.60;6.90;;;;;;;18.21;61.37;100936.31;5074526;28;20036;-31
2022/07/23 05:04:28;;;;;;;8.30;6.68;;;;;;;18.19;62.24;100922.16;5074427;28;20025;-31
2022/07/23 05:06:53;;;;;;;8.35;7.55;;;;;;;18.21;62.06;100920.31;5076752;28;20051;-31
2022/07/23 05:09:18;;;;;;;7.43;6.72;;;;;;;18.18;61.64;100926.59;5057438;28;20526;-31
2022/07/23 05:11:44;;;;;;;8.00;6.82;;;;;;;18.18;61.46;100941.75;5057005;28;20024;-31
2022/07/23 05:14:12;;;;;;;6.82;6.22;;;;;;;18.19;61.50;100951.50;5057328;28;20095;-31
2022/07/23 05:16:37;;;;;;;6.95;6.22;;;;;;;18.19;61.54;100956.84;5074493;28;20594;-32
2022/07/23 05:19:03;;;;;;;7.28;6.20;;;;;;;18.18;61.82;100949.78;5058496;28;20033;-32
2022/07/23 05:21:28;;;;;;;9.23;6.50;;;;;;;18.17;61.69;100950.72;5048629;28;20369;-31
2022/07/23 05:23:54;;;;;;;8.30;6.50;;;;;;;18.16;62.28;100948.94;5055517;28;20547;-31
2022/07/23 05:26:19;;;;;;;7.10;6.43;;;;;;;18.16;62.15;100952.50;5053235;28;20035;-31
2022/07/23 05:28:45;;;;;;;6.85;5.78;;;;;;;18.17;61.79;100972.06;5053932;28;20055;-31
2022/07/23 05:31:10;;;;;;;8.52;7.20;;;;;;;18.17;61.98;100977.41;5053076;28;20032;-31
2022/07/23 05:33:35;;;;;;;7.30;6.60;;;;;;;18.16;61.44;100978.31;5052972;28;20029;-31
2022/07/23 05:36:04;;;;;;;9.18;7.07;;;;;;;18.16;61.60;100967.63;5079646;28;20101;-31
2022/07/23 05:38:30;;;;;;;6.82;6.13;;;;;;;18.19;61.56;100952.38;5073613;28;20380;-32
2022/07/23 05:40:55;;;;;;;7.35;6.57;;;;;;;18.16;61.39;100943.59;5088433;28;20029;-31
2022/07/23 05:43:21;;;;;;;8.50;6.78;;;;;;;18.17;61.69;100946.22;5073231;28;20033;-31
2022/07/23 05:45:46;;;;;;;8.13;7.20;;;;;;;18.15;61.66;100942.75;5073141;28;20028;-32
2022/07/23 05:48:12;;;;;;;7.47;6.72;;;;;;;18.17;62.36;100937.38;5073664;28;20509;-31
2022/07/23 05:50:37;;;;;;;7.68;7.00;;;;;;;18.15;62.09;100925.84;5054881;28;20016;-31
2022/07/23 05:53:02;;;;;;;7.50;6.80;;;;;;;18.13;62.03;100922.34;5038805;28;20039;-31
2022/07/23 05:55:31;;;;;;;7.95;7.25;;;;;;;18.13;62.14;100925.03;5073370;28;20029;-31
2022/07/23 05:57:57;;;;;;;7.10;6.50;;;;;;;18.12;62.29;100925.97;5074617;28;20104;-31
2022/07/23 06:00:22;;;;;;;7.15;6.55;;;;;;;18.12;62.42;100923.28;5073582;28;20495;-31
2022/07/23 06:02:47;;;;;;;7.80;7.07;;;;;;;18.13;62.43;100941.03;5073333;28;20020;-31
2022/07/23 06:05:13;;;;;;;7.57;6.88;;;;;;;18.12;62.49;100936.63;5090382;28;20027;-31
2022/07/23 06:07:38;;;;;;;8.05;7.25;;;;;;;18.10;62.04;100938.50;5093458;28;20038;-31
2022/07/23 06:10:04;;;;;;;7.70;6.78;;;;;;;18.10;62.17;100933.19;5093029;28;20494;-31
2022/07/23 06:12:29;;;;;;;7.53;6.82;;;;;;;18.10;62.05;100918.00;5093896;28;20104;-31
2022/07/23 06:14:55;;;;;;;8.02;7.03;;;;;;;18.11;62.03;100905.56;5075062;28;20598;-31
2022/07/23 06:17:20;;;;;;;7.35;6.70;;;;;;;18.13;62.22;100911.69;5092453;28;20024;-31
2022/07/23 06:19:45;;;;;;;8.52;7.15;;;;;;;18.13;62.38;100891.22;5093610;28;20024;-32
2022/07/23 06:22:11;;;;;;;8.30;7.25;;;;;;;18.13;62.23;100895.66;5093583;28;20486;-29
2022/07/23 06:24:36;;;;;;;8.63;7.72;;;;;;;18.13;62.34;100896.56;5087289;28;20484;-29
2022/07/23 06:27:02;;;;;;;7.80;6.75;;;;;;;18.15;62.29;100899.16;5074535;28;20035;-29
2022/07/23 06:29:27;;;;;;;8.60;7.68;;;;;;;18.15;62.42;100893.81;5093212;28;20071;-29
2022/07/23 06:31:53;;;;;;;8.32;7.10;;;;;;;18.19;63.17;100898.13;5076258;28;20020;-29
2022/07/23 06:34:18;;;;;;;8.93;7.47;;;;;;;18.21;62.32;100906.97;5076292;28;20031;-29
2022/07/23 06:36:43;;;;;;;8.60;7.90;;;;;;;18.23;63.01;100901.56;5093401;28;20028;-29
2022/07/23 06:39:09;;;;;;;9.05;8.23;;;;;;;18.25;64.10;100905.03;5094161;28;20146;-29
2022/07/23 06:41:34;;;;;;;10.35;9.13;;;;;;;18.28;63.16;100910.25;5093190;28;20024;-29
2022/07/23 06:44:00;;;;;;;9.88;8.90;;;;;;;18.31;64.12;100920.81;5037142;28;20029;-29
2022/07/23 06:46:25;;;;;;;10.23;9.32;;;;;;;18.33;64.15;100925.16;5073802;28;20103;-29
2022/07/23 06:48:50;;;;;;;11.27;9.15;;;;;;;18.34;63.11;100932.25;5072013;28;20115;-29
2022/07/23 06:51:16;;;;;;;9.90;8.93;;;;;;;18.37;64.25;100938.41;5072698;28;20035;-29
2022/07/23 06:53:41;;;;;;;12.27;9.68;;;;;;;18.40;64.05;100951.63;5039313;28;20111;-29
2022/07/23 06:56:07;;;;;;;10.20;9.30;;;;;;;18.41;64.46;100950.72;5060303;28;20035;-32
2022/07/23 06:58:32;;;;;;;11.45;10.25;;;;;;;18.45;64.25;100955.00;5093203;28;20077;-32
2022/07/23 07:00:58;;;;;;;10.77;9.77;;;;;;;18.45;63.36;100955.00;5093551;28;20133;-31
2022/07/23 07:03:23;;;;;;;10.73;9.82;;;;;;;18.47;63.33;100974.50;5092239;28;20031;-31
2022/07/23 07:05:49;;;;;;;11.55;10.38;;;;;;;18.49;63.93;100988.69;5093546;28;20028;-32
2022/07/23 07:08:15;;;;;;;12.50;11.25;;;;;;;18.51;64.84;100975.28;5075664;28;20539;-31
2022/07/23 07:10:41;;;;;;;10.88;9.77;;;;;;;18.50;63.62;100971.72;5072068;28;20099;-31
2022/07/23 07:13:07;;;;;;;12.05;10.63;;;;;;;18.54;63.59;100965.31;5053928;28;20098;-32
2022/07/23 07:15:32;;;;;;;12.80;11.52;;;;;;;18.53;64.04;100966.25;5053752;28;20445;-31
2022/07/23 07:17:58;;;;;;;11.73;10.52;;;;;;;18.56;63.72;100963.47;5053705;28;20029;-31
2022/07/23 07:20:23;;;;;;;10.68;9.63;;;;;;;18.58;63.98;100966.94;5072278;28;20647;-31
2022/07/23 07:22:49;;;;;;;11.43;10.23;;;;;;;18.60;64.40;100969.56;5054084;28;20472;-32
2022/07/23 07:25:15;;;;;;;11.90;10.70;;;;;;;18.63;64.19;100947.19;5072206;28;20028;-31
2022/07/23 07:27:41;;;;;;;10.30;9.23;;;;;;;18.64;63.70;100948.97;5071800;28;20052;-32
2022/07/23 07:30:07;;;;;;;10.77;9.70;;;;;;;18.67;64.15;100970.22;5072413;28;20066;-32
2022/07/23 07:32:32;;;;;;;9.35;8.45;;;;;;;18.68;63.89;100983.50;5071539;28;20028;-31
2022/07/23 07:34:58;;;;;;;11.13;9.95;;;;;;;18.70;65.75;100967.41;5086788;28;20028;-31
2022/07/23 07:37:23;;;;;;;11.32;9.95;;;;;;;18.74;66.84;100973.53;5092199;28;20119;-31
2022/07/23 07:39:48;;;;;;;10.27;9.27;;;;;;;18.76;65.77;100980.53;5073716;28;20103;-32
2022/07/23 07:42:14;;;;;;;11.02;9.93;;;;;;;18.79;65.68;100980.44;5091743;28;20069;-29
2022/07/23 07:44:39;;;;;;;11.13;10.10;;;;;;;18.81;66.52;100977.69;5069151;28;20418;-29
2022/07/23 07:47:05;;;;;;;11.10;10.02;;;;;;;18.82;66.06;100974.97;5071983;28;20037;-29
2022/07/23 07:49:30;;;;;;;10.52;9.43;;;;;;;18.83;64.76;100984.72;5090019;28;20024;-29
2022/07/23 07:51:55;;;;;;;10.10;9.10;;;;;;;18.85;65.30;100990.84;5091847;28;20024;-29
2022/07/23 07:54:21;;;;;;;9.88;8.98;;;;;;;18.88;63.80;100994.34;5090859;28;20533;-29
2022/07/23 07:56:47;;;;;;;9.45;8.65;;;;;;;18.89;64.52;100996.97;5091788;28;20020;-29
2022/07/23 07:59:14;;;;;;;10.80;9.70;;;;;;;18.92;65.76;100998.66;5072346;28;20028;-29
2022/07/23 08:01:40;;;;;;;11.02;9.57;;;;;;;18.93;64.43;100997.72;5071910;28;20028;-29
2022/07/23 08:04:05;;;;;;;10.38;9.00;;;;;;;18.94;64.90;100994.97;5071721;28;20031;-29
2022/07/23 08:06:31;;;;;;;9.48;8.68;;;;;;;18.97;64.61;101005.56;5072013;28;20048;-29
2022/07/23 08:08:56;;;;;;;9.93;9.02;;;;;;;19.01;66.00;101000.97;5086973;28;20269;-29
2022/07/23 08:11:22;;;;;;;9.40;8.43;;;;;;;19.03;65.51;101014.25;5073898;28;20029;-29
2022/07/23 08:13:48;;;;;;;9.65;8.57;;;;;;;19.07;66.39;101021.25;5074704;28;20515;-29
2022/07/23 08:16:14;;;;;;;9.60;8.70;;;;;;;19.09;66.45;101028.31;5041132;28;20027;-29
2022/07/23 08:18:39;;;;;;;12.25;9.65;;;;;;;19.12;65.94;101023.75;5057164;28;20383;-29
2022/07/23 08:21:05;;;;;;;9.85;8.45;;;;;;;19.13;64.43;101021.00;5057114;28;20025;-29
2022/07/23 08:23:31;;;;;;;9.63;8.70;;;;;;;19.15;65.49;101023.63;5076023;28;20028;-29
2022/07/23 08:25:56;;;;;;;9.85;8.85;;;;;;;19.18;64.34;101023.50;5075963;28;20044;-29
2022/07/23 08:28:22;;;;;;;11.02;10.00;;;;;;;19.21;64.25;101023.41;5076755;28;20099;-29
2022/07/23 08:30:48;;;;;;;10.95;9.95;;;;;;;19.22;64.41;101030.47;5058091;28;20079;-29
2022/07/23 08:33:16;;;;;;;10.82;9.60;;;;;;;19.23;64.34;101027.75;5076030;28;20033;-29
2022/07/23 08:35:46;;;;;;;11.05;9.95;;;;;;;19.25;64.38;101025.00;5057665;28;20024;-29
2022/07/23 08:38:12;;;;;;;12.80;11.32;;;;;;;19.26;64.70;101017.84;5074641;28;20027;-29
2022/07/23 08:40:44;;;;;;;11.15;10.05;;;;;;;19.28;65.06;101016.00;5056264;28;20392;-29
2022/07/23 08:43:15;;;;;;;12.85;11.23;;;;;;;19.29;64.90;101018.59;5084627;28;20097;-29
2022/07/23 08:45:43;;;;;;;11.35;10.23;;;;;;;19.32;64.78;101014.94;5081905;28;20020;-29
2022/07/23 08:48:12;;;;;;;13.07;11.68;;;;;;;19.34;64.92;101013.09;5056134;28;20430;-29
2022/07/23 08:50:42;;;;;;;11.45;10.30;;;;;;;19.38;66.72;101016.50;5073876;28;20432;-29
2022/07/23 08:53:08;;;;;;;16.33;14.10;;;;;;;19.40;67.43;101028.84;5074267;28;20024;-29
2022/07/23 08:55:34;;;;;;;14.80;13.30;;;;;;;19.42;66.63;101027.00;5056258;28;20262;-29
2022/07/23 08:57:59;;;;;;;16.58;14.98;;;;;;;19.46;67.41;101028.63;5039164;28;20047;-29
2022/07/23 09:00:25;;;;;;;15.90;14.40;;;;;;;19.48;67.35;101024.06;5089180;28;20479;-29
2022/07/23 09:02:51;;;;;;;15.93;14.45;;;;;;;19.51;67.16;101024.88;5094167;28;20161;-29
2022/07/23 09:05:16;;;;;;;16.30;14.60;;;;;;;19.54;66.79;101035.47;5093999;28;20020;-29
2022/07/23 09:08:04;;;;;;;16.92;14.60;;;;;;;19.58;67.14;101042.41;5076006;28;20020;-29
2022/07/23 09:10:29;;;;;;;15.85;14.35;;;;;;;19.61;67.55;101042.31;5094056;28;20031;-29
2022/07/23 09:12:54;;;;;;;13.55;12.15;;;;;;;19.64;68.25;101042.16;5073715;28;20024;-29
2022/07/23 09:15:20;;;;;;;12.68;11.38;;;;;;;19.67;67.16;101041.19;5073926;28;20496;-29
2022/07/23 09:17:45;;;;;;;12.45;11.35;;;;;;;19.74;65.85;101050.69;5073467;28;20036;-29
2022/07/23 09:20:13;;;;;;;11.70;10.70;;;;;;;19.77;65.86;101053.22;5039000;28;20021;-29
2022/07/23 09:22:46;;;;;;;11.30;10.20;;;;;;;19.81;64.49;101065.53;5072935;28;20024;-29
2022/07/23 09:25:17;;;;;;;11.45;10.38;;;;;;;19.81;65.85;101060.19;5039003;28;20028;-29
2022/07/23 09:27:45;;;;;;;;;;;;;;;19.84;63.93;101069.91;5038828;28;20020;-29
2022/07/23 09:30:11;;;;;;;11.20;10.07;;;;;;;19.86;64.19;101055.53;5075669;28;20058;-30
2022/07/23 09:32:36;;;;;;;11.50;10.43;;;;;;;19.90;64.20;101066.09;5077462;28;20087;-31
2022/07/23 09:35:02;;;;;;;11.25;10.25;;;;;;;19.92;63.66;101057.06;5073810;28;20028;-29
2022/07/23 09:37:28;;;;;;;11.13;10.13;;;;;;;19.96;63.61;101060.47;5073115;28;20494;-29
2022/07/23 09:40:07;;;;;;;11.00;9.18;;;;;;;19.99;63.62;101063.03;5072876;28;20021;-29
2022/07/23 09:42:33;;;;;;;11.05;9.93;;;;;;;20.02;63.98;101068.28;5088621;28;20067;-29
2022/07/23 09:44:58;;;;;;;9.40;8.55;;;;;;;20.03;64.00;101064.66;5074387;28;20103;-29
2022/07/23 09:47:27;;;;;;;10.25;9.23;;;;;;;20.06;63.45;101064.53;5093119;28;20016;-29
2022/07/23 09:49:59;;;;;;;10.30;9.38;;;;;;;20.09;63.44;101061.72;5093929;28;20028;-29
2022/07/23 09:52:28;;;;;;;9.05;8.27;;;;;;;20.12;63.89;101061.59;5093906;28;20020;-29
2022/07/23 09:55:02;;;;;;;10.73;9.63;;;;;;;20.16;63.80;101053.41;5093781;28;20049;-29
2022/07/23 09:57:27;;;;;;;10.93;9.80;;;;;;;20.17;64.35;101050.66;5076046;28;20034;-29
2022/07/23 09:59:53;;;;;;;9.98;8.90;;;;;;;20.23;64.24;101053.09;5094043;28;20391;-29
2022/07/23 10:02:19;;;;;;;10.52;9.57;;;;;;;20.29;64.20;101048.38;5075765;28;20476;-29
2022/07/23 10:04:45;;;;;;;10.52;9.60;;;;;;;20.34;64.65;101052.59;5075384;28;20039;-29
2022/07/23 10:07:11;;;;;;;10.05;9.07;;;;;;;20.41;64.00;101052.34;5075434;28;20035;-29
2022/07/23 10:09:40;;;;;;;11.15;9.82;;;;;;;20.47;64.21;101068.16;5093367;28;20467;-29
2022/07/23 10:14:40;;;;;;;11.65;10.32;;;;;;;20.62;63.69;101066.59;5072901;28;20029;-29
2022/07/23 10:17:06;;;;;;;12.50;11.25;;;;;;;20.70;63.57;101060.84;5072666;28;20032;-29
2022/07/23 10:19:32;;;;;;;10.60;9.52;;;;;;;20.76;63.56;101064.16;5073412;28;20021;-29
2022/07/23 10:22:03;;;;;;;9.38;8.55;;;;;;;20.83;62.80;101071.88;5072609;28;20028;-29
2022/07/23 10:24:52;;;;;;;10.73;9.73;;;;;;;20.89;63.15;101067.16;5058719;28;20231;-29
2022/07/23 10:28:03;;;;;;;12.35;9.60;;;;;;;20.97;62.40;101068.63;5062199;28;20025;-29
2022/07/23 10:31:06;;;;;;;16.08;10.93;;;;;;;21.07;62.52;101064.53;5047735;28;20636;-29
2022/07/23 10:33:59;;;;;;;12.23;9.93;;;;;;;21.15;62.66;101059.69;5036631;28;20058;-29
2022/07/23 10:36:32;;;;;;;11.40;10.20;;;;;;;21.22;62.60;101065.66;5072391;28;20059;-29
2022/07/23 10:39:03;;;;;;;11.65;10.52;;;;;;;21.28;62.73;101059.97;5037778;28;20396;-29
2022/07/23 10:41:38;;;;;;;11.48;10.32;;;;;;;21.36;62.20;101056.91;5072717;28;20024;-29
2022/07/23 10:44:09;;;;;;;11.02;10.05;;;;;;;21.48;61.76;101049.22;5072388;28;20036;-29
2022/07/23 10:49:29;;;;;;;13.52;11.48;;;;;;;21.66;61.56;101058.16;5063398;28;20372;-29
2022/07/23 10:52:13;;;;;;;10.75;9.73;;;;;;;21.79;61.01;101063.81;5074185;28;20031;-29
2022/07/23 10:54:46;;;;;;;11.32;9.80;;;;;;;21.87;60.77;101056.25;5092060;28;20027;-29
2022/07/23 10:57:12;;;;;;;11.27;10.18;;;;;;;21.94;60.75;101059.47;5074234;28;20051;-29
2022/07/23 11:00:17;;;;;;;11.13;10.18;;;;;;;22.02;60.37;101059.97;5092179;28;20023;-29
2022/07/23 11:02:47;;;;;;;10.65;9.65;;;;;;;22.11;60.38;101055.91;5091636;28;20031;-29
2022/07/23 11:05:15;;;;;;;11.40;10.00;;;;;;;22.17;59.96;101058.28;5091937;28;20110;-29
2022/07/23 11:08:06;;;;;;;11.27;10.18;;;;;;;22.28;59.59;101056.88;5073724;28;20342;-29
2022/07/23 11:10:34;;;;;;;12.35;10.35;;;;;;;22.39;59.51;101070.59;5092059;28;20031;-29
2022/07/23 11:13:21;;;;;;;10.55;9.50;;;;;;;22.49;59.61;101053.97;5091722;28;20023;-31
2022/07/23 11:16:02;;;;;;;11.75;10.65;;;;;;;22.56;59.36;101050.06;5092019;28;20368;-32
2022/07/23 11:18:40;;;;;;;;;;;;;;;22.64;58.95;101041.59;5072720;28;20025;-31
2022/07/23 11:21:26;;;;;;;11.48;10.38;;;;;;;22.74;58.67;101045.47;5071642;28;19908;-32
2022/07/23 11:24:06;;;;;;;12.30;10.30;;;;;;;22.86;58.75;101043.94;5086674;28;20035;-31
2022/07/23 11:26:43;;;;;;;11.68;10.60;;;;;;;22.97;58.77;101039.81;5058312;28;20028;-32